createdAt,value
2023-03-07T00:02:28.007Z,27.30
2023-03-07T00:04:58.564Z,27.34
2023-03-07T00:07:29.013Z,27.32
2023-03-07T00:10:01.808Z,27.32
2023-03-07T00:12:32.141Z,27.32
2023-03-07T00:15:02.719Z,27.35
2023-03-07T00:17:33.093Z,27.40
2023-03-07T00:20:03.351Z,27.45
2023-03-07T00:22:33.572Z,27.49
2023-03-07T00:25:04.283Z,27.53
2023-03-07T00:27:35.699Z,27.54
2023-03-07T00:30:07.305Z,27.58
2023-03-07T00:32:37.678Z,27.62
2023-03-07T00:35:08.496Z,27.65
2023-03-07T00:37:39.056Z,27.67
2023-03-07T00:40:10.906Z,27.70
2023-03-07T00:42:41.819Z,27.73
2023-03-07T00:45:12.356Z,27.75
2023-03-07T00:47:42.831Z,27.79
2023-03-07T00:50:13.341Z,27.82
2023-03-07T00:52:43.559Z,27.81
2023-03-07T00:55:13.820Z,27.83
2023-03-07T00:57:44.099Z,27.85
2023-03-07T01:00:18.066Z,27.87
2023-03-07T01:02:48.286Z,27.90
2023-03-07T01:05:18.715Z,27.92
2023-03-07T01:07:49.101Z,27.94
2023-03-07T01:10:20.180Z,27.96
2023-03-07T01:12:50.367Z,27.97
2023-03-07T01:15:20.788Z,27.98
2023-03-07T01:17:51.040Z,28.00
2023-03-07T01:20:21.404Z,28.02
2023-03-07T01:22:51.785Z,28.02
2023-03-07T01:25:22.290Z,28.05
2023-03-07T01:27:59.575Z,28.06
2023-03-07T01:30:32.191Z,28.08
2023-03-07T01:33:03.488Z,28.09
2023-03-07T01:35:38.758Z,28.11
2023-03-07T01:38:09.476Z,28.13
2023-03-07T01:40:41.471Z,28.14
2023-03-07T01:43:24.737Z,28.16
2023-03-07T01:46:23.230Z,28.17
2023-03-07T01:48:59.783Z,28.20
2023-03-07T01:51:32.978Z,28.22
2023-03-07T01:54:06.611Z,28.25
2023-03-07T01:56:38.760Z,28.25
2023-03-07T01:59:10.200Z,28.27
2023-03-07T02:01:40.779Z,28.29
2023-03-07T02:04:17.943Z,28.31
2023-03-07T02:06:48.438Z,28.32
2023-03-07T02:09:20.788Z,28.34
2023-03-07T02:11:51.376Z,28.36
2023-03-07T02:14:21.699Z,28.38
2023-03-07T02:16:52.906Z,28.40
2023-03-07T02:19:39.395Z,28.43
2023-03-07T02:22:12.400Z,28.44
2023-03-07T02:25:04.226Z,28.46
2023-03-07T02:27:36.529Z,28.48
2023-03-07T02:30:08.229Z,28.50
2023-03-07T02:32:38.661Z,28.51
2023-03-07T02:35:16.932Z,28.56
2023-03-07T02:37:51.303Z,28.57
2023-03-07T02:40:25.380Z,28.59
2023-03-07T02:42:58.162Z,28.62
2023-03-07T02:45:28.633Z,28.64
2023-03-07T02:47:58.982Z,28.65
2023-03-07T02:50:32.129Z,28.69
2023-03-07T02:53:02.555Z,28.71
2023-03-07T02:55:32.923Z,28.73
2023-03-07T02:58:06.029Z,28.75
2023-03-07T03:00:36.724Z,28.78
2023-03-07T03:03:07.425Z,28.80
2023-03-07T03:05:37.808Z,28.82
2023-03-07T03:08:08.246Z,28.84
2023-03-07T03:10:38.758Z,28.88
2023-03-07T03:13:09.492Z,28.89
2023-03-07T03:15:41.050Z,28.92
2023-03-07T03:18:11.330Z,28.93
2023-03-07T03:20:42.474Z,28.96
2023-03-07T03:23:13.976Z,28.99
2023-03-07T03:25:44.364Z,29.01
2023-03-07T03:28:15.016Z,29.04
2023-03-07T03:30:45.658Z,29.06
2023-03-07T03:33:16.363Z,29.08
2023-03-07T03:35:49.258Z,29.12
2023-03-07T03:38:19.869Z,29.13
2023-03-07T03:40:50.287Z,29.16
2023-03-07T03:43:21.363Z,29.19
2023-03-07T03:45:58.482Z,29.22
2023-03-07T03:48:31.444Z,29.24
2023-03-07T03:51:18.878Z,29.26
2023-03-07T03:53:49.160Z,29.29
2023-03-07T03:56:23.018Z,29.32
2023-03-07T03:58:54.356Z,29.34
2023-03-07T04:01:27.138Z,29.37
2023-03-07T04:03:59.931Z,29.39
2023-03-07T04:06:31.763Z,29.42
2023-03-07T04:09:02.462Z,29.45
2023-03-07T04:11:32.772Z,29.47
2023-03-07T04:14:03.372Z,29.50
2023-03-07T04:16:33.859Z,29.53
2023-03-07T04:19:04.406Z,29.55
2023-03-07T04:21:34.792Z,29.56
2023-03-07T04:24:05.436Z,29.59
2023-03-07T04:26:39.773Z,29.62
2023-03-07T04:29:10.243Z,29.65
2023-03-07T04:31:46.051Z,29.68
2023-03-07T04:34:16.624Z,29.70
2023-03-07T04:36:47.199Z,29.71
2023-03-07T04:39:17.908Z,29.73
2023-03-07T04:41:48.930Z,29.75
2023-03-07T04:44:22.579Z,29.76
2023-03-07T04:46:53.022Z,29.78
2023-03-07T04:49:23.501Z,29.80
2023-03-07T04:51:53.759Z,29.82
2023-03-07T04:54:24.021Z,29.84
2023-03-07T04:56:54.486Z,29.84
2023-03-07T04:59:25.095Z,29.88
2023-03-07T05:01:55.914Z,29.89
2023-03-07T05:04:26.670Z,29.90
2023-03-07T05:06:57.709Z,29.91
2023-03-07T05:09:28.292Z,29.92
2023-03-07T05:11:58.679Z,29.94
2023-03-07T05:14:29.196Z,29.96
2023-03-07T05:16:59.489Z,29.97
2023-03-07T05:19:29.732Z,29.98
2023-03-07T05:22:00.417Z,30.01
2023-03-07T05:24:30.649Z,30.02
2023-03-07T05:27:01.645Z,30.04
2023-03-07T05:29:31.854Z,30.04
2023-03-07T05:32:03.119Z,30.06
2023-03-07T05:34:33.401Z,30.07
2023-03-07T05:37:03.971Z,30.10
2023-03-07T05:39:35.202Z,30.10
2023-03-07T05:42:05.728Z,30.14
2023-03-07T05:44:36.955Z,30.14
2023-03-07T05:47:08.399Z,30.18
2023-03-07T05:49:39.340Z,30.21
2023-03-07T05:52:09.607Z,30.22
2023-03-07T05:54:39.847Z,30.25
2023-03-07T05:57:10.376Z,30.28
2023-03-07T05:59:42.623Z,30.31
2023-03-07T06:02:12.809Z,30.34
2023-03-07T06:04:43.491Z,30.37
2023-03-07T06:07:14.039Z,30.39
2023-03-07T06:09:44.895Z,30.41
2023-03-07T06:12:16.067Z,30.44
2023-03-07T06:14:47.080Z,30.46
2023-03-07T06:17:17.298Z,30.49
2023-03-07T06:19:48.291Z,30.51
2023-03-07T06:22:18.497Z,30.54
2023-03-07T06:24:49.471Z,30.56
2023-03-07T06:27:20.416Z,30.60
2023-03-07T06:29:50.616Z,30.62
2023-03-07T06:32:20.997Z,30.64
2023-03-07T06:34:51.432Z,30.66
2023-03-07T06:37:21.770Z,30.68
2023-03-07T06:39:52.378Z,30.71
2023-03-07T06:42:23.220Z,30.73
2023-03-07T06:44:53.499Z,30.77
2023-03-07T06:47:23.846Z,30.80
2023-03-07T06:49:54.840Z,30.83
2023-03-07T06:52:25.198Z,30.86
2023-03-07T06:54:55.864Z,30.89
2023-03-07T06:57:26.598Z,30.94
2023-03-07T06:59:56.961Z,30.96
2023-03-07T07:02:29.271Z,30.99
2023-03-07T07:05:01.265Z,31.02
2023-03-07T07:07:33.176Z,31.05
2023-03-07T07:10:03.556Z,31.09
2023-03-07T07:12:33.906Z,31.12
2023-03-07T07:15:06.509Z,31.16
2023-03-07T07:17:37.245Z,31.21
2023-03-07T07:20:08.351Z,31.25
2023-03-07T07:22:38.693Z,31.30
2023-03-07T07:25:09.441Z,31.32
2023-03-07T07:27:40.156Z,31.37
2023-03-07T07:30:11.043Z,31.41
2023-03-07T07:32:41.589Z,31.44
2023-03-07T07:35:12.611Z,31.48
2023-03-07T07:37:43.365Z,31.52
2023-03-07T07:40:15.086Z,31.54
2023-03-07T07:42:46.857Z,31.58
2023-03-07T07:45:24.427Z,31.63
2023-03-07T07:47:55.476Z,31.65
2023-03-07T07:50:26.310Z,31.69
2023-03-07T07:52:56.586Z,31.72
2023-03-07T07:55:27.773Z,31.75
2023-03-07T07:57:58.766Z,31.77
2023-03-07T08:00:29.163Z,31.82
2023-03-07T08:03:00.445Z,31.86
2023-03-07T08:05:30.650Z,31.90
2023-03-07T08:08:00.977Z,31.94
2023-03-07T08:10:31.341Z,31.97
2023-03-07T08:13:01.496Z,32.00
2023-03-07T08:15:31.735Z,32.03
2023-03-07T08:18:02.304Z,32.07
2023-03-07T08:20:32.886Z,32.11
2023-03-07T08:23:03.551Z,32.13
2023-03-07T08:25:33.943Z,32.16
2023-03-07T08:28:06.821Z,32.19
2023-03-07T08:30:38.514Z,32.21
2023-03-07T08:33:08.936Z,32.24
2023-03-07T08:35:42.291Z,32.26
2023-03-07T08:38:13.163Z,32.31
2023-03-07T08:40:43.445Z,32.33
2023-03-07T08:43:13.755Z,32.35
2023-03-07T08:45:44.159Z,32.39
2023-03-07T08:48:14.483Z,32.41
2023-03-07T08:50:44.698Z,32.43
2023-03-07T08:53:18.124Z,32.46
2023-03-07T08:55:48.560Z,32.48
2023-03-07T08:58:19.077Z,32.51
2023-03-07T09:00:49.452Z,32.53
2023-03-07T09:03:19.588Z,32.56
2023-03-07T09:05:49.729Z,32.58
2023-03-07T09:08:20.286Z,32.60
2023-03-07T09:10:50.496Z,32.64
2023-03-07T09:13:21.674Z,32.65
2023-03-07T09:15:51.963Z,32.54
2023-03-07T09:18:24.402Z,32.36
2023-03-07T09:20:54.689Z,32.22
2023-03-07T09:23:24.854Z,32.10
2023-03-07T09:25:55.102Z,32.05
2023-03-07T09:28:25.297Z,32.01
2023-03-07T09:30:55.737Z,31.99
2023-03-07T09:33:26.892Z,31.96
2023-03-07T09:35:57.310Z,31.72
2023-03-07T09:38:28.202Z,31.95
2023-03-07T09:41:03.571Z,31.92
2023-03-07T09:43:43.715Z,31.93
2023-03-07T09:46:47.877Z,31.89
2023-03-07T09:49:21.287Z,31.89
2023-03-07T09:51:53.709Z,31.88
2023-03-07T09:54:26.294Z,31.89
2023-03-07T09:57:00.359Z,31.87
2023-03-07T09:59:40.468Z,31.88
2023-03-07T10:02:20.197Z,31.86
2023-03-07T10:04:54.380Z,31.85
2023-03-07T10:07:26.340Z,31.86
2023-03-07T10:10:02.382Z,31.83
2023-03-07T10:12:48.525Z,31.84
2023-03-07T10:15:30.013Z,31.83
2023-03-07T10:18:18.577Z,31.82
2023-03-07T10:21:04.245Z,31.81
2023-03-07T10:23:34.630Z,31.75
2023-03-07T10:26:17.915Z,31.74
2023-03-07T10:28:49.831Z,31.73
2023-03-07T10:31:24.308Z,31.68
2023-03-07T10:33:55.996Z,31.67
2023-03-07T10:36:38.714Z,31.67
2023-03-07T10:39:47.753Z,31.64
2023-03-07T10:42:19.232Z,31.61
2023-03-07T10:44:50.411Z,31.58
2023-03-07T10:47:25.335Z,31.54
2023-03-07T10:50:28.266Z,31.52
2023-03-07T10:53:00.207Z,31.52
2023-03-07T10:55:36.458Z,31.60
2023-03-07T10:58:17.292Z,31.77
2023-03-07T11:00:48.612Z,31.91
2023-03-07T11:03:51.052Z,31.98
2023-03-07T11:06:28.240Z,32.05
2023-03-07T11:08:58.679Z,32.11
2023-03-07T11:11:33.751Z,32.12
2023-03-07T11:14:14.587Z,32.15
2023-03-07T11:16:46.016Z,32.18
2023-03-07T11:19:31.529Z,32.19
2023-03-07T11:22:05.094Z,32.19
2023-03-07T11:24:49.028Z,32.20
2023-03-07T11:27:27.317Z,32.19
2023-03-07T11:30:08.822Z,32.19
2023-03-07T11:32:42.009Z,32.19
2023-03-07T11:35:22.465Z,32.17
2023-03-07T11:38:02.893Z,32.15
2023-03-07T11:40:44.008Z,32.15
2023-03-07T11:43:25.966Z,32.13
2023-03-07T11:46:05.623Z,32.12
2023-03-07T11:48:47.134Z,32.10
2023-03-07T11:51:59.055Z,32.11
2023-03-07T11:54:35.730Z,32.08
2023-03-07T11:57:29.500Z,32.07
2023-03-07T12:00:02.788Z,32.04
2023-03-07T12:02:54.490Z,32.02
2023-03-07T12:05:42.941Z,32.00
2023-03-07T12:08:27.902Z,31.99
2023-03-07T12:11:04.093Z,31.98
2023-03-07T12:13:41.695Z,31.96
2023-03-07T12:16:28.442Z,31.95
2023-03-07T12:19:01.852Z,31.92
2023-03-07T12:21:41.492Z,31.91
2023-03-07T12:24:21.889Z,31.89
2023-03-07T12:27:01.491Z,31.87
2023-03-07T12:29:48.172Z,31.85
2023-03-07T12:32:21.787Z,31.85
2023-03-07T12:35:07.658Z,31.83
2023-03-07T12:37:50.923Z,31.80
2023-03-07T12:40:22.861Z,31.79
2023-03-07T12:42:57.943Z,31.78
2023-03-07T12:45:37.762Z,31.77
2023-03-07T12:48:26.113Z,31.75
2023-03-07T12:51:01.824Z,31.73
2023-03-07T12:53:42.131Z,31.71
2023-03-07T12:56:24.230Z,31.69
2023-03-07T12:58:57.653Z,31.68
2023-03-07T13:01:29.985Z,31.67
2023-03-07T13:04:06.235Z,31.66
2023-03-07T13:06:39.774Z,31.66
2023-03-07T13:09:16.499Z,31.63
2023-03-07T13:12:04.755Z,31.61
2023-03-07T13:14:42.664Z,31.59
2023-03-07T13:17:13.775Z,31.57
2023-03-07T13:19:45.313Z,31.56
2023-03-07T13:22:18.560Z,31.53
2023-03-07T13:24:49.387Z,31.35
2023-03-07T13:27:19.657Z,31.25
2023-03-07T13:30:08.141Z,31.15
2023-03-07T13:32:53.616Z,31.08
2023-03-07T13:35:32.418Z,31.07
2023-03-07T13:38:06.720Z,31.05
2023-03-07T13:40:36.833Z,31.02
2023-03-07T13:43:22.110Z,31.00
2023-03-07T13:45:54.282Z,30.97
2023-03-07T13:48:30.352Z,30.92
2023-03-07T13:51:10.813Z,30.88
2023-03-07T13:53:52.300Z,30.86
2023-03-07T13:56:26.536Z,30.84
2023-03-07T13:59:05.614Z,30.82
2023-03-07T14:01:40.664Z,30.81
2023-03-07T14:04:38.827Z,30.84
2023-03-07T14:07:29.540Z,30.85
2023-03-07T14:10:22.321Z,30.84
2023-03-07T14:13:02.039Z,30.84
2023-03-07T14:15:50.712Z,30.83
2023-03-07T14:18:26.257Z,30.78
2023-03-07T14:20:59.738Z,30.78
2023-03-07T14:23:52.538Z,30.75
2023-03-07T14:26:26.612Z,30.76
2023-03-07T14:29:01.217Z,30.75
2023-03-07T14:31:33.610Z,30.73
2023-03-07T14:34:07.288Z,30.68
2023-03-07T14:36:39.706Z,30.50
2023-03-07T14:39:14.532Z,30.10
2023-03-07T14:41:50.575Z,30.17
2023-03-07T14:44:39.330Z,30.05
2023-03-07T14:47:21.536Z,29.93
2023-03-07T14:50:06.851Z,29.81
2023-03-07T14:52:38.109Z,29.69
2023-03-07T14:55:22.105Z,29.60
2023-03-07T14:57:54.528Z,29.50
2023-03-07T15:00:31.909Z,29.37
2023-03-07T15:03:09.909Z,29.32
2023-03-07T15:05:51.498Z,29.25
2023-03-07T15:08:24.786Z,29.16
2023-03-07T15:11:08.114Z,29.10
2023-03-07T15:13:42.969Z,29.04
2023-03-07T15:16:17.654Z,28.96
2023-03-07T15:18:52.092Z,28.89
2023-03-07T15:21:23.869Z,28.81
2023-03-07T15:23:58.646Z,28.76
2023-03-07T15:26:29.765Z,28.69
2023-03-07T15:29:02.075Z,28.63
2023-03-07T15:31:36.267Z,28.65
2023-03-07T15:34:22.384Z,28.71
2023-03-07T15:36:52.640Z,28.76
2023-03-07T15:39:35.827Z,28.78
2023-03-07T15:42:10.281Z,28.77
2023-03-07T15:44:40.471Z,28.78
2023-03-07T15:47:16.057Z,28.79
2023-03-07T15:49:52.185Z,28.75
2023-03-07T15:52:35.858Z,28.73
2023-03-07T15:55:09.519Z,28.74
2023-03-07T15:57:42.271Z,28.68
2023-03-07T16:00:25.342Z,28.68
2023-03-07T16:03:17.491Z,28.68
2023-03-07T16:05:50.088Z,28.61
2023-03-07T16:08:26.147Z,28.60
2023-03-07T16:10:56.529Z,28.57
2023-03-07T16:13:30.144Z,28.50
2023-03-07T16:16:29.679Z,28.47
2023-03-07T16:19:00.152Z,28.44
2023-03-07T16:21:30.462Z,28.43
2023-03-07T16:24:00.769Z,28.40
2023-03-07T16:26:32.742Z,28.22
2023-03-07T16:29:03.484Z,28.11
2023-03-07T16:31:33.740Z,28.04
2023-03-07T16:34:04.130Z,28.00
2023-03-07T16:36:34.830Z,27.96
2023-03-07T16:39:05.222Z,27.94
2023-03-07T16:41:35.635Z,27.90
2023-03-07T16:44:06.174Z,27.85
2023-03-07T16:46:36.949Z,27.81
2023-03-07T16:49:07.179Z,27.81
2023-03-07T16:51:37.343Z,27.74
2023-03-07T16:54:07.620Z,27.71
2023-03-07T16:56:43.062Z,27.68
2023-03-07T16:59:18.716Z,27.66
2023-03-07T17:01:50.522Z,27.64
2023-03-07T17:04:20.962Z,27.63
2023-03-07T17:07:03.875Z,27.65
2023-03-07T17:09:35.057Z,27.62
2023-03-07T17:12:05.389Z,27.60
2023-03-07T17:14:36.820Z,27.61
2023-03-07T17:17:08.076Z,27.58
2023-03-07T17:19:38.384Z,27.57
2023-03-07T17:22:08.917Z,27.57
2023-03-07T17:24:40.036Z,27.54
2023-03-07T17:27:10.658Z,27.58
2023-03-07T17:29:45.299Z,27.57
2023-03-07T17:32:15.985Z,27.55
2023-03-07T17:34:46.866Z,27.55
2023-03-07T17:37:17.599Z,27.54
2023-03-07T17:39:48.043Z,27.51
2023-03-07T17:42:18.392Z,27.48
2023-03-07T17:44:48.786Z,27.50
2023-03-07T17:47:19.664Z,27.49
2023-03-07T17:49:51.774Z,27.50
2023-03-07T17:52:22.374Z,27.47
2023-03-07T17:54:53.167Z,27.47
2023-03-07T17:57:24.119Z,27.47
2023-03-07T17:59:55.207Z,27.44
2023-03-07T18:02:26.334Z,27.41
2023-03-07T18:04:56.851Z,27.43
2023-03-07T18:07:27.308Z,27.38
2023-03-07T18:10:07.995Z,27.38
2023-03-07T18:12:40.691Z,27.36
2023-03-07T18:15:15.465Z,27.33
2023-03-07T18:17:48.755Z,27.32
2023-03-07T18:20:21.857Z,27.35
2023-03-07T18:22:52.956Z,27.31
2023-03-07T18:25:25.426Z,27.30
2023-03-07T18:27:56.128Z,27.29
2023-03-07T18:30:27.154Z,27.28
2023-03-07T18:32:57.857Z,27.22
2023-03-07T18:35:28.631Z,27.23
2023-03-07T18:38:00.391Z,27.21
2023-03-07T18:40:31.563Z,27.17
2023-03-07T18:43:02.079Z,27.15
2023-03-07T18:45:33.360Z,27.12
2023-03-07T18:48:03.579Z,27.14
2023-03-07T18:50:33.874Z,27.13
2023-03-07T18:53:05.326Z,27.12
2023-03-07T18:55:39.053Z,27.11
2023-03-07T18:58:09.926Z,27.10
2023-03-07T19:00:40.206Z,27.09
2023-03-07T19:03:10.569Z,27.09
2023-03-07T19:05:48.179Z,27.08
2023-03-07T19:08:19.131Z,27.08
2023-03-07T19:10:49.407Z,27.07
2023-03-07T19:13:19.823Z,27.05
2023-03-07T19:15:50.514Z,27.03
2023-03-07T19:18:20.813Z,27.01
2023-03-07T19:20:51.241Z,27.02
2023-03-07T19:23:22.843Z,27.02
2023-03-07T19:25:53.799Z,26.98
2023-03-07T19:28:24.091Z,26.96
2023-03-07T19:30:54.426Z,26.95
2023-03-07T19:33:25.716Z,26.93
2023-03-07T19:36:03.959Z,26.91
2023-03-07T19:38:34.294Z,26.93
2023-03-07T19:41:05.896Z,26.86
2023-03-07T19:43:36.560Z,26.85
2023-03-07T19:46:07.918Z,26.82
2023-03-07T19:48:40.704Z,26.83
2023-03-07T19:51:18.085Z,26.82
2023-03-07T19:53:49.024Z,26.79
2023-03-07T19:56:21.492Z,26.79
2023-03-07T19:58:52.015Z,26.75
2023-03-07T20:01:23.686Z,26.78
2023-03-07T20:03:55.206Z,26.74
2023-03-07T20:06:31.202Z,26.73
2023-03-07T20:09:02.996Z,26.73
2023-03-07T20:11:37.243Z,26.71
2023-03-07T20:14:08.709Z,26.71
2023-03-07T20:16:39.856Z,26.74
2023-03-07T20:19:11.323Z,26.72
2023-03-07T20:21:43.848Z,26.71
2023-03-07T20:24:14.417Z,26.21
2023-03-07T20:26:45.260Z,26.69
2023-03-07T20:29:16.416Z,26.67
2023-03-07T20:31:46.803Z,26.69
2023-03-07T20:34:17.554Z,26.67
2023-03-07T20:36:48.729Z,26.65
2023-03-07T20:39:20.053Z,26.63
2023-03-07T20:41:51.544Z,26.62
2023-03-07T20:44:22.200Z,26.62
2023-03-07T20:46:52.742Z,26.62
2023-03-07T20:49:23.159Z,26.58
2023-03-07T20:51:54.046Z,26.58
2023-03-07T20:54:25.562Z,26.61
2023-03-07T20:56:56.232Z,26.69
2023-03-07T20:59:26.783Z,26.75
2023-03-07T21:01:57.267Z,26.78
2023-03-07T21:04:27.901Z,26.81
2023-03-07T21:06:58.481Z,26.89
2023-03-07T21:09:32.193Z,26.97
2023-03-07T21:12:02.652Z,27.05
2023-03-07T21:14:33.158Z,27.11
2023-03-07T21:17:05.203Z,27.17
2023-03-07T21:19:35.548Z,27.22
2023-03-07T21:22:06.052Z,27.22
2023-03-07T21:24:36.524Z,27.19
2023-03-07T21:27:06.941Z,27.16
2023-03-07T21:29:37.304Z,27.12
2023-03-07T21:32:07.473Z,27.09
2023-03-07T21:34:37.685Z,27.07
2023-03-07T21:37:07.922Z,27.07
2023-03-07T21:39:38.338Z,27.10
2023-03-07T21:42:08.874Z,27.15
2023-03-07T21:44:39.453Z,27.22
2023-03-07T21:47:09.814Z,27.26
2023-03-07T21:49:40.393Z,27.31
2023-03-07T21:52:11.180Z,27.30
2023-03-07T21:54:41.631Z,27.27
2023-03-07T21:57:11.970Z,27.20
2023-03-07T21:59:43.020Z,27.17
2023-03-07T22:02:13.774Z,27.14
2023-03-07T22:04:44.144Z,26.69
2023-03-07T22:07:15.814Z,27.09
2023-03-07T22:09:46.070Z,27.10
2023-03-07T22:12:54.871Z,27.14
2023-03-07T22:15:27.990Z,27.17
2023-03-07T22:17:58.233Z,27.21
2023-03-07T22:20:28.608Z,27.27
2023-03-07T22:22:59.164Z,27.29
2023-03-07T22:25:29.468Z,27.27
2023-03-07T22:27:59.704Z,27.21
2023-03-07T22:30:30.023Z,27.17
2023-03-07T22:33:00.783Z,27.13
2023-03-07T22:35:30.968Z,27.10
2023-03-07T22:38:01.151Z,27.09
2023-03-07T22:40:31.432Z,27.11
2023-03-07T22:43:01.822Z,27.16
2023-03-07T22:45:32.224Z,27.21
2023-03-07T22:48:02.364Z,27.24
2023-03-07T22:50:32.518Z,27.27
2023-03-07T22:53:02.696Z,27.29
2023-03-07T22:55:33.020Z,27.26
2023-03-07T22:58:03.536Z,27.21
2023-03-07T23:00:33.734Z,27.16
2023-03-07T23:03:03.996Z,27.08
2023-03-07T23:05:34.983Z,27.11
2023-03-07T23:08:05.877Z,27.17
2023-03-07T23:10:36.079Z,27.23
2023-03-07T23:13:06.429Z,26.81
2023-03-07T23:15:36.641Z,27.32
2023-03-07T23:18:06.927Z,27.41
2023-03-07T23:20:38.761Z,27.49
2023-03-07T23:23:37.997Z,27.54
2023-03-07T23:26:08.302Z,27.58
2023-03-07T23:28:38.522Z,27.65
2023-03-07T23:31:16.708Z,27.71
2023-03-07T23:33:47.220Z,27.76
2023-03-07T23:36:18.712Z,27.78
2023-03-07T23:38:49.132Z,27.84
2023-03-07T23:41:19.504Z,27.88
2023-03-07T23:43:54.539Z,27.93
2023-03-07T23:46:25.557Z,27.96
2023-03-07T23:48:56.238Z,27.98
2023-03-07T23:51:27.024Z,27.99
2023-03-07T23:53:57.269Z,28.02
2023-03-07T23:56:27.829Z,28.05
2023-03-07T23:58:57.969Z,28.05
